Terminal Aerodrome Forecast
Issued by NWS

Home | Current Version | Previous Version | Graphics & Text | Print | Product List | Glossary On
Versions: 1 2 3 4 5 6 7 8 9 10 11 12 13
000
FTUS43 KICT 271720
TAFHUT
TAF
KHUT 271720Z 2718/2818 15009KT P6SM BKN040
     FM280000 34013KT P6SM SCT040
     FM280200 34014KT P6SM BKN030
     FM280300 35014KT P6SM BKN050
     FM280900 33010KT P6SM SCT060=

USA.gov is the U.S. government's official web portal to all federal, state and local government web resources and services.